sensor_id;sensor_type;location;lat;lon;timestamp;P1;durP1;ratioP1;P2;durP2;ratioP2
51467;SDS011;37545;45.302;-122.946;2023-03-26T00:01:28;0.38;;;0.20;;
51467;SDS011;37545;45.302;-122.946;2023-03-26T00:03:58;0.00;;;0.00;;
51467;SDS011;37545;45.302;-122.946;2023-03-26T00:06:27;0.68;;;0.13;;
51467;SDS011;37545;45.302;-122.946;2023-03-26T00:08:59;1.80;;;0.30;;
51467;SDS011;37545;45.302;-122.946;2023-03-26T00:11:28;0.08;;;0.00;;
51467;SDS011;37545;45.302;-122.946;2023-03-26T00:13:57;0.65;;;0.25;;
51467;SDS011;37545;45.302;-122.946;2023-03-26T00:16:29;0.20;;;0.20;;
51467;SDS011;37545;45.302;-122.946;2023-03-26T00:19:01;0.17;;;0.10;;
51467;SDS011;37545;45.302;-122.946;2023-03-26T00:21:30;2.28;;;0.28;;
51467;SDS011;37545;45.302;-122.946;2023-03-26T00:24:00;0.55;;;0.20;;
51467;SDS011;37545;45.302;-122.946;2023-03-26T00:26:34;0.50;;;0.30;;
51467;SDS011;37545;45.302;-122.946;2023-03-26T00:29:05;0.68;;;0.40;;
51467;SDS011;37545;45.302;-122.946;2023-03-26T00:31:42;0.95;;;0.10;;
51467;SDS011;37545;45.302;-122.946;2023-03-26T00:34:11;0.38;;;0.22;;
51467;SDS011;37545;45.302;-122.946;2023-03-26T00:36:42;0.77;;;0.20;;
51467;SDS011;37545;45.302;-122.946;2023-03-26T00:39:12;0.77;;;0.20;;
51467;SDS011;37545;45.302;-122.946;2023-03-26T00:41:42;2.15;;;0.35;;
51467;SDS011;37545;45.302;-122.946;2023-03-26T00:44:11;0.20;;;0.20;;
51467;SDS011;37545;45.302;-122.946;2023-03-26T00:46:41;0.13;;;0.10;;
51467;SDS011;37545;45.302;-122.946;2023-03-26T00:49:10;0.35;;;0.22;;
51467;SDS011;37545;45.302;-122.946;2023-03-26T00:51:39;0.38;;;0.32;;
51467;SDS011;37545;45.302;-122.946;2023-03-26T00:54:08;1.55;;;0.20;;
51467;SDS011;37545;45.302;-122.946;2023-03-26T00:56:37;0.28;;;0.20;;
51467;SDS011;37545;45.302;-122.946;2023-03-26T00:59:06;0.70;;;0.22;;
51467;SDS011;37545;45.302;-122.946;2023-03-26T01:01:35;0.43;;;0.20;;
51467;SDS011;37545;45.302;-122.946;2023-03-26T01:04:20;0.22;;;0.20;;
51467;SDS011;37545;45.302;-122.946;2023-03-26T01:06:55;0.85;;;0.30;;
51467;SDS011;37545;45.302;-122.946;2023-03-26T01:09:26;1.23;;;0.50;;
51467;SDS011;37545;45.302;-122.946;2023-03-26T01:12:03;2.40;;;0.20;;
51467;SDS011;37545;45.302;-122.946;2023-03-26T01:14:33;0.03;;;0.03;;
51467;SDS011;37545;45.302;-122.946;2023-03-26T01:17:03;0.25;;;0.20;;
51467;SDS011;37545;45.302;-122.946;2023-03-26T01:19:36;0.17;;;0.05;;
51467;SDS011;37545;45.302;-122.946;2023-03-26T01:22:13;0.43;;;0.10;;
51467;SDS011;37545;45.302;-122.946;2023-03-26T01:24:45;0.70;;;0.17;;
51467;SDS011;37545;45.302;-122.946;2023-03-26T01:27:19;0.05;;;0.05;;
51467;SDS011;37545;45.302;-122.946;2023-03-26T01:29:57;0.93;;;0.13;;
51467;SDS011;37545;45.302;-122.946;2023-03-26T01:32:35;2.60;;;0.47;;
51467;SDS011;37545;45.302;-122.946;2023-03-26T01:35:17;0.30;;;0.20;;
51467;SDS011;37545;45.302;-122.946;2023-03-26T01:37:54;0.17;;;0.05;;
51467;SDS011;37545;45.302;-122.946;2023-03-26T01:40:39;0.20;;;0.20;;
51467;SDS011;37545;45.302;-122.946;2023-03-26T01:43:12;0.00;;;0.00;;
51467;SDS011;37545;45.302;-122.946;2023-03-26T01:45:51;0.70;;;0.20;;
51467;SDS011;37545;45.302;-122.946;2023-03-26T01:48:23;0.90;;;0.10;;
51467;SDS011;37545;45.302;-122.946;2023-03-26T01:50:57;1.33;;;0.25;;
51467;SDS011;37545;45.302;-122.946;2023-03-26T01:53:26;0.00;;;0.00;;
51467;SDS011;37545;45.302;-122.946;2023-03-26T01:55:58;1.35;;;0.20;;
51467;SDS011;37545;45.302;-122.946;2023-03-26T01:58:34;0.95;;;0.50;;
51467;SDS011;37545;45.302;-122.946;2023-03-26T02:01:11;2.05;;;0.22;;
51467;SDS011;37545;45.302;-122.946;2023-03-26T02:03:53;0.70;;;0.47;;
51467;SDS011;37545;45.302;-122.946;2023-03-26T02:06:29;2.67;;;0.40;;
51467;SDS011;37545;45.302;-122.946;2023-03-26T02:09:06;0.22;;;0.20;;
51467;SDS011;37545;45.302;-122.946;2023-03-26T02:11:40;1.13;;;0.30;;
51467;SDS011;37545;45.302;-122.946;2023-03-26T02:14:11;0.35;;;0.17;;
51467;SDS011;37545;45.302;-122.946;2023-03-26T02:16:41;1.35;;;0.30;;
51467;SDS011;37545;45.302;-122.946;2023-03-26T02:19:11;0.10;;;0.10;;
51467;SDS011;37545;45.302;-122.946;2023-03-26T02:21:46;1.13;;;0.30;;
51467;SDS011;37545;45.302;-122.946;2023-03-26T02:24:16;0.85;;;0.10;;
51467;SDS011;37545;45.302;-122.946;2023-03-26T02:26:46;1.48;;;0.40;;
51467;SDS011;37545;45.302;-122.946;2023-03-26T02:29:15;2.63;;;0.20;;
51467;SDS011;37545;45.302;-122.946;2023-03-26T02:31:45;0.65;;;0.20;;
51467;SDS011;37545;45.302;-122.946;2023-03-26T02:34:14;2.28;;;0.30;;
51467;SDS011;37545;45.302;-122.946;2023-03-26T02:36:43;0.20;;;0.15;;
51467;SDS011;37545;45.302;-122.946;2023-03-26T02:39:12;2.05;;;0.30;;
51467;SDS011;37545;45.302;-122.946;2023-03-26T02:41:41;0.75;;;0.32;;
51467;SDS011;37545;45.302;-122.946;2023-03-26T02:44:12;2.15;;;0.38;;
51467;SDS011;37545;45.302;-122.946;2023-03-26T02:46:40;0.80;;;0.25;;
51467;SDS011;37545;45.302;-122.946;2023-03-26T02:49:09;0.75;;;0.20;;
51467;SDS011;37545;45.302;-122.946;2023-03-26T02:51:38;0.22;;;0.20;;
51467;SDS011;37545;45.302;-122.946;2023-03-26T02:54:07;2.05;;;0.47;;
51467;SDS011;37545;45.302;-122.946;2023-03-26T02:56:36;0.47;;;0.30;;
51467;SDS011;37545;45.302;-122.946;2023-03-26T02:59:05;0.28;;;0.00;;
51467;SDS011;37545;45.302;-122.946;2023-03-26T03:01:35;1.30;;;0.35;;
51467;SDS011;37545;45.302;-122.946;2023-03-26T03:04:07;0.30;;;0.30;;
51467;SDS011;37545;45.302;-122.946;2023-03-26T03:06:36;0.10;;;0.10;;
51467;SDS011;37545;45.302;-122.946;2023-03-26T03:09:05;0.40;;;0.25;;
51467;SDS011;37545;45.302;-122.946;2023-03-26T03:11:38;0.60;;;0.10;;
51467;SDS011;37545;45.302;-122.946;2023-03-26T03:14:07;0.55;;;0.10;;
51467;SDS011;37545;45.302;-122.946;2023-03-26T03:16:37;0.50;;;0.25;;
51467;SDS011;37545;45.302;-122.946;2023-03-26T03:19:06;0.05;;;0.03;;
51467;SDS011;37545;45.302;-122.946;2023-03-26T03:21:35;0.30;;;0.20;;
51467;SDS011;37545;45.302;-122.946;2023-03-26T03:24:04;4.10;;;0.30;;
51467;SDS011;37545;45.302;-122.946;2023-03-26T03:26:33;0.55;;;0.38;;
51467;SDS011;37545;45.302;-122.946;2023-03-26T03:29:02;0.32;;;0.10;;
51467;SDS011;37545;45.302;-122.946;2023-03-26T03:31:31;0.50;;;0.20;;
51467;SDS011;37545;45.302;-122.946;2023-03-26T03:34:01;0.20;;;0.10;;
51467;SDS011;37545;45.302;-122.946;2023-03-26T03:36:30;2.35;;;0.20;;
51467;SDS011;37545;45.302;-122.946;2023-03-26T03:39:03;0.55;;;0.28;;
51467;SDS011;37545;45.302;-122.946;2023-03-26T03:41:32;0.20;;;0.15;;
51467;SDS011;37545;45.302;-122.946;2023-03-26T03:44:00;2.75;;;0.55;;
51467;SDS011;37545;45.302;-122.946;2023-03-26T03:46:29;0.73;;;0.63;;
51467;SDS011;37545;45.302;-122.946;2023-03-26T03:48:58;0.45;;;0.20;;
51467;SDS011;37545;45.302;-122.946;2023-03-26T03:51:28;0.88;;;0.43;;
51467;SDS011;37545;45.302;-122.946;2023-03-26T03:53:57;0.63;;;0.40;;
51467;SDS011;37545;45.302;-122.946;2023-03-26T03:56:25;1.52;;;0.40;;
51467;SDS011;37545;45.302;-122.946;2023-03-26T03:58:54;3.42;;;0.50;;
51467;SDS011;37545;45.302;-122.946;2023-03-26T04:01:24;1.35;;;0.22;;
51467;SDS011;37545;45.302;-122.946;2023-03-26T04:03:55;2.65;;;0.50;;
51467;SDS011;37545;45.302;-122.946;2023-03-26T04:06:24;3.30;;;0.40;;
51467;SDS011;37545;45.302;-122.946;2023-03-26T04:08:56;2.88;;;0.50;;
51467;SDS011;37545;45.302;-122.946;2023-03-26T04:11:25;0.90;;;0.50;;
51467;SDS011;37545;45.302;-122.946;2023-03-26T04:13:54;0.82;;;0.50;;
51467;SDS011;37545;45.302;-122.946;2023-03-26T04:16:23;1.65;;;0.70;;
51467;SDS011;37545;45.302;-122.946;2023-03-26T04:18:51;1.13;;;0.68;;
51467;SDS011;37545;45.302;-122.946;2023-03-26T04:21:21;1.17;;;0.70;;
51467;SDS011;37545;45.302;-122.946;2023-03-26T04:23:51;1.23;;;0.65;;
51467;SDS011;37545;45.302;-122.946;2023-03-26T04:26:21;0.55;;;0.50;;
51467;SDS011;37545;45.302;-122.946;2023-03-26T04:28:51;2.13;;;0.82;;
51467;SDS011;37545;45.302;-122.946;2023-03-26T04:31:22;1.17;;;0.50;;
51467;SDS011;37545;45.302;-122.946;2023-03-26T04:33:54;0.60;;;0.40;;
51467;SDS011;37545;45.302;-122.946;2023-03-26T04:36:25;1.17;;;0.55;;
51467;SDS011;37545;45.302;-122.946;2023-03-26T04:38:57;1.23;;;0.82;;
51467;SDS011;37545;45.302;-122.946;2023-03-26T04:41:31;1.85;;;0.60;;
51467;SDS011;37545;45.302;-122.946;2023-03-26T04:44:00;2.38;;;0.40;;
51467;SDS011;37545;45.302;-122.946;2023-03-26T04:46:29;0.60;;;0.50;;
51467;SDS011;37545;45.302;-122.946;2023-03-26T04:48:59;1.05;;;0.65;;
51467;SDS011;37545;45.302;-122.946;2023-03-26T04:51:32;1.25;;;0.73;;
51467;SDS011;37545;45.302;-122.946;2023-03-26T04:54:06;1.20;;;0.93;;
51467;SDS011;37545;45.302;-122.946;2023-03-26T04:56:41;0.73;;;0.40;;
51467;SDS011;37545;45.302;-122.946;2023-03-26T04:59:15;0.52;;;0.35;;
51467;SDS011;37545;45.302;-122.946;2023-03-26T05:01:51;3.20;;;1.00;;
51467;SDS011;37545;45.302;-122.946;2023-03-26T05:04:24;1.98;;;0.45;;
51467;SDS011;37545;45.302;-122.946;2023-03-26T05:06:54;2.10;;;0.80;;
51467;SDS011;37545;45.302;-122.946;2023-03-26T05:09:24;1.48;;;0.57;;
51467;SDS011;37545;45.302;-122.946;2023-03-26T05:11:55;0.95;;;0.40;;
51467;SDS011;37545;45.302;-122.946;2023-03-26T05:14:24;1.00;;;0.60;;
51467;SDS011;37545;45.302;-122.946;2023-03-26T05:16:52;1.13;;;0.43;;
51467;SDS011;37545;45.302;-122.946;2023-03-26T05:19:21;0.98;;;0.45;;
51467;SDS011;37545;45.302;-122.946;2023-03-26T05:21:50;1.08;;;0.50;;
51467;SDS011;37545;45.302;-122.946;2023-03-26T05:24:19;2.53;;;0.80;;
51467;SDS011;37545;45.302;-122.946;2023-03-26T05:26:49;1.98;;;0.45;;
51467;SDS011;37545;45.302;-122.946;2023-03-26T05:29:20;0.47;;;0.40;;
51467;SDS011;37545;45.302;-122.946;2023-03-26T05:31:51;3.70;;;0.60;;
51467;SDS011;37545;45.302;-122.946;2023-03-26T05:34:20;1.58;;;1.00;;
51467;SDS011;37545;45.302;-122.946;2023-03-26T05:36:50;0.70;;;0.60;;
51467;SDS011;37545;45.302;-122.946;2023-03-26T05:39:20;0.38;;;0.30;;
51467;SDS011;37545;45.302;-122.946;2023-03-26T05:41:51;0.68;;;0.40;;
51467;SDS011;37545;45.302;-122.946;2023-03-26T05:44:21;0.98;;;0.30;;
51467;SDS011;37545;45.302;-122.946;2023-03-26T05:46:50;3.00;;;0.43;;
51467;SDS011;37545;45.302;-122.946;2023-03-26T05:49:19;1.95;;;0.47;;
51467;SDS011;37545;45.302;-122.946;2023-03-26T05:51:48;2.75;;;0.63;;
51467;SDS011;37545;45.302;-122.946;2023-03-26T05:54:18;0.68;;;0.40;;
51467;SDS011;37545;45.302;-122.946;2023-03-26T05:56:46;1.65;;;0.65;;
51467;SDS011;37545;45.302;-122.946;2023-03-26T05:59:15;1.05;;;0.68;;
51467;SDS011;37545;45.302;-122.946;2023-03-26T06:01:45;1.10;;;0.70;;
51467;SDS011;37545;45.302;-122.946;2023-03-26T06:04:16;1.13;;;0.77;;
51467;SDS011;37545;45.302;-122.946;2023-03-26T06:06:45;2.17;;;0.60;;
51467;SDS011;37545;45.302;-122.946;2023-03-26T06:09:14;4.32;;;0.57;;
51467;SDS011;37545;45.302;-122.946;2023-03-26T06:11:43;1.02;;;0.30;;
51467;SDS011;37545;45.302;-122.946;2023-03-26T06:14:11;2.28;;;0.55;;
51467;SDS011;37545;45.302;-122.946;2023-03-26T06:16:40;1.52;;;0.50;;
51467;SDS011;37545;45.302;-122.946;2023-03-26T06:19:11;0.52;;;0.40;;
51467;SDS011;37545;45.302;-122.946;2023-03-26T06:21:40;0.88;;;0.45;;
51467;SDS011;37545;45.302;-122.946;2023-03-26T06:24:09;1.98;;;0.40;;
51467;SDS011;37545;45.302;-122.946;2023-03-26T06:26:38;0.95;;;0.40;;
51467;SDS011;37545;45.302;-122.946;2023-03-26T06:29:06;0.95;;;0.50;;
51467;SDS011;37545;45.302;-122.946;2023-03-26T06:31:35;4.30;;;0.50;;
51467;SDS011;37545;45.302;-122.946;2023-03-26T06:34:04;1.23;;;0.50;;
51467;SDS011;37545;45.302;-122.946;2023-03-26T06:36:34;1.13;;;0.40;;
51467;SDS011;37545;45.302;-122.946;2023-03-26T06:39:03;1.17;;;0.63;;
51467;SDS011;37545;45.302;-122.946;2023-03-26T06:41:32;0.70;;;0.43;;
51467;SDS011;37545;45.302;-122.946;2023-03-26T06:44:00;3.55;;;0.75;;
51467;SDS011;37545;45.302;-122.946;2023-03-26T06:46:29;0.63;;;0.38;;
51467;SDS011;37545;45.302;-122.946;2023-03-26T06:48:58;0.50;;;0.50;;
51467;SDS011;37545;45.302;-122.946;2023-03-26T06:51:27;1.23;;;0.40;;
51467;SDS011;37545;45.302;-122.946;2023-03-26T06:53:58;0.55;;;0.28;;
51467;SDS011;37545;45.302;-122.946;2023-03-26T06:56:26;1.50;;;0.73;;
51467;SDS011;37545;45.302;-122.946;2023-03-26T06:58:55;1.40;;;0.52;;
51467;SDS011;37545;45.302;-122.946;2023-03-26T07:01:24;1.90;;;0.70;;
51467;SDS011;37545;45.302;-122.946;2023-03-26T07:03:53;0.65;;;0.38;;
51467;SDS011;37545;45.302;-122.946;2023-03-26T07:06:23;0.93;;;0.32;;
51467;SDS011;37545;45.302;-122.946;2023-03-26T07:08:52;1.40;;;0.55;;
51467;SDS011;37545;45.302;-122.946;2023-03-26T07:11:23;0.95;;;0.43;;
51467;SDS011;37545;45.302;-122.946;2023-03-26T07:13:52;0.43;;;0.43;;
51467;SDS011;37545;45.302;-122.946;2023-03-26T07:16:24;3.10;;;0.70;;
51467;SDS011;37545;45.302;-122.946;2023-03-26T07:18:52;1.25;;;0.68;;
51467;SDS011;37545;45.302;-122.946;2023-03-26T07:21:21;1.70;;;0.70;;
51467;SDS011;37545;45.302;-122.946;2023-03-26T07:23:51;0.70;;;0.50;;
51467;SDS011;37545;45.302;-122.946;2023-03-26T07:26:29;1.25;;;1.15;;
51467;SDS011;37545;45.302;-122.946;2023-03-26T07:29:03;0.93;;;0.43;;
51467;SDS011;37545;45.302;-122.946;2023-03-26T07:31:41;0.90;;;0.52;;
51467;SDS011;37545;45.302;-122.946;2023-03-26T07:34:23;2.05;;;0.55;;
51467;SDS011;37545;45.302;-122.946;2023-03-26T07:37:03;1.10;;;0.50;;
51467;SDS011;37545;45.302;-122.946;2023-03-26T07:39:43;0.50;;;0.50;;
51467;SDS011;37545;45.302;-122.946;2023-03-26T07:42:23;0.63;;;0.50;;
51467;SDS011;37545;45.302;-122.946;2023-03-26T07:45:02;0.75;;;0.47;;
51467;SDS011;37545;45.302;-122.946;2023-03-26T07:47:43;0.60;;;0.32;;
51467;SDS011;37545;45.302;-122.946;2023-03-26T07:50:14;2.17;;;0.60;;
51467;SDS011;37545;45.302;-122.946;2023-03-26T07:52:45;1.88;;;0.55;;
51467;SDS011;37545;45.302;-122.946;2023-03-26T07:55:14;2.78;;;0.70;;
51467;SDS011;37545;45.302;-122.946;2023-03-26T07:57:50;1.70;;;0.70;;
51467;SDS011;37545;45.302;-122.946;2023-03-26T08:00:28;2.60;;;0.47;;
51467;SDS011;37545;45.302;-122.946;2023-03-26T08:03:04;0.70;;;0.50;;
51467;SDS011;37545;45.302;-122.946;2023-03-26T08:05:58;0.50;;;0.40;;
51467;SDS011;37545;45.302;-122.946;2023-03-26T08:08:37;1.70;;;0.70;;
51467;SDS011;37545;45.302;-122.946;2023-03-26T08:11:16;1.02;;;0.70;;
51467;SDS011;37545;45.302;-122.946;2023-03-26T08:14:13;0.90;;;0.55;;
51467;SDS011;37545;45.302;-122.946;2023-03-26T08:16:54;3.83;;;0.50;;
51467;SDS011;37545;45.302;-122.946;2023-03-26T08:19:37;1.98;;;0.70;;
51467;SDS011;37545;45.302;-122.946;2023-03-26T08:22:16;4.00;;;0.60;;
51467;SDS011;37545;45.302;-122.946;2023-03-26T08:24:56;0.60;;;0.35;;
51467;SDS011;37545;45.302;-122.946;2023-03-26T08:27:36;0.95;;;0.50;;
51467;SDS011;37545;45.302;-122.946;2023-03-26T08:30:10;0.73;;;0.55;;
51467;SDS011;37545;45.302;-122.946;2023-03-26T08:32:47;0.50;;;0.45;;
51467;SDS011;37545;45.302;-122.946;2023-03-26T08:35:19;2.15;;;0.50;;
51467;SDS011;37545;45.302;-122.946;2023-03-26T08:37:48;5.18;;;0.50;;
51467;SDS011;37545;45.302;-122.946;2023-03-26T08:40:19;4.10;;;0.85;;
51467;SDS011;37545;45.302;-122.946;2023-03-26T08:43:14;1.33;;;0.70;;
51467;SDS011;37545;45.302;-122.946;2023-03-26T08:49:11;2.50;;;0.40;;
51467;SDS011;37545;45.302;-122.946;2023-03-26T08:52:22;3.72;;;0.45;;
51467;SDS011;37545;45.302;-122.946;2023-03-26T08:55:22;1.20;;;0.70;;
51467;SDS011;37545;45.302;-122.946;2023-03-26T09:04:07;3.58;;;0.60;;
51467;SDS011;37545;45.302;-122.946;2023-03-26T09:07:03;2.42;;;0.80;;
51467;SDS011;37545;45.302;-122.946;2023-03-26T09:13:21;1.50;;;0.52;;
51467;SDS011;37545;45.302;-122.946;2023-03-26T09:16:21;1.33;;;0.70;;
51467;SDS011;37545;45.302;-122.946;2023-03-26T09:22:27;1.33;;;0.30;;
51467;SDS011;37545;45.302;-122.946;2023-03-26T09:25:40;1.17;;;0.60;;
51467;SDS011;37545;45.302;-122.946;2023-03-26T09:28:32;1.10;;;0.70;;
51467;SDS011;37545;45.302;-122.946;2023-03-26T09:34:28;0.82;;;0.55;;
51467;SDS011;37545;45.302;-122.946;2023-03-26T09:37:04;2.25;;;0.70;;
51467;SDS011;37545;45.302;-122.946;2023-03-26T09:39:58;2.30;;;1.13;;
51467;SDS011;37545;45.302;-122.946;2023-03-26T09:42:42;7.38;;;2.60;;
51467;SDS011;37545;45.302;-122.946;2023-03-26T09:45:20;5.30;;;1.73;;
51467;SDS011;37545;45.302;-122.946;2023-03-26T09:48:12;4.07;;;1.33;;
51467;SDS011;37545;45.302;-122.946;2023-03-26T09:53:40;1.58;;;0.98;;
51467;SDS011;37545;45.302;-122.946;2023-03-26T09:56:26;5.10;;;1.10;;
51467;SDS011;37545;45.302;-122.946;2023-03-26T09:59:09;2.55;;;1.20;;
51467;SDS011;37545;45.302;-122.946;2023-03-26T10:07:11;4.95;;;1.55;;
51467;SDS011;37545;45.302;-122.946;2023-03-26T10:09:55;2.15;;;1.13;;
51467;SDS011;37545;45.302;-122.946;2023-03-26T10:12:33;2.72;;;1.30;;
51467;SDS011;37545;45.302;-122.946;2023-03-26T10:15:12;6.75;;;1.42;;
51467;SDS011;37545;45.302;-122.946;2023-03-26T10:17:57;2.60;;;1.15;;
51467;SDS011;37545;45.302;-122.946;2023-03-26T10:20:37;2.30;;;1.35;;
51467;SDS011;37545;45.302;-122.946;2023-03-26T10:23:25;7.40;;;1.63;;
51467;SDS011;37545;45.302;-122.946;2023-03-26T10:26:11;5.40;;;1.85;;
51467;SDS011;37545;45.302;-122.946;2023-03-26T10:28:59;3.13;;;1.50;;
51467;SDS011;37545;45.302;-122.946;2023-03-26T10:31:43;5.85;;;1.92;;
51467;SDS011;37545;45.302;-122.946;2023-03-26T10:37:13;5.53;;;1.98;;
51467;SDS011;37545;45.302;-122.946;2023-03-26T10:39:53;6.90;;;1.60;;
51467;SDS011;37545;45.302;-122.946;2023-03-26T10:42:37;5.80;;;1.90;;
51467;SDS011;37545;45.302;-122.946;2023-03-26T10:45:28;7.90;;;1.80;;
51467;SDS011;37545;45.302;-122.946;2023-03-26T10:48:11;3.78;;;1.25;;
51467;SDS011;37545;45.302;-122.946;2023-03-26T10:54:05;3.13;;;1.70;;
51467;SDS011;37545;45.302;-122.946;2023-03-26T10:56:43;4.55;;;1.88;;
51467;SDS011;37545;45.302;-122.946;2023-03-26T10:59:14;7.05;;;2.55;;
51467;SDS011;37545;45.302;-122.946;2023-03-26T11:01:45;8.23;;;2.45;;
51467;SDS011;37545;45.302;-122.946;2023-03-26T11:04:23;6.53;;;2.03;;
51467;SDS011;37545;45.302;-122.946;2023-03-26T11:07:03;2.85;;;1.45;;
51467;SDS011;37545;45.302;-122.946;2023-03-26T11:09:39;8.68;;;1.75;;
51467;SDS011;37545;45.302;-122.946;2023-03-26T11:12:17;5.28;;;1.73;;
51467;SDS011;37545;45.302;-122.946;2023-03-26T11:14:54;1.95;;;1.02;;
51467;SDS011;37545;45.302;-122.946;2023-03-26T11:17:36;3.35;;;1.70;;
51467;SDS011;37545;45.302;-122.946;2023-03-26T11:20:14;1.27;;;1.02;;
51467;SDS011;37545;45.302;-122.946;2023-03-26T11:22:51;3.80;;;1.50;;
51467;SDS011;37545;45.302;-122.946;2023-03-26T11:25:37;1.65;;;1.00;;
51467;SDS011;37545;45.302;-122.946;2023-03-26T11:28:18;2.20;;;1.48;;
51467;SDS011;37545;45.302;-122.946;2023-03-26T11:31:00;1.15;;;0.68;;
51467;SDS011;37545;45.302;-122.946;2023-03-26T11:33:38;4.93;;;1.42;;
51467;SDS011;37545;45.302;-122.946;2023-03-26T11:36:11;2.97;;;1.20;;
51467;SDS011;37545;45.302;-122.946;2023-03-26T11:38:43;3.30;;;1.30;;
51467;SDS011;37545;45.302;-122.946;2023-03-26T11:41:14;5.38;;;1.48;;
51467;SDS011;37545;45.302;-122.946;2023-03-26T11:43:47;2.58;;;0.75;;
51467;SDS011;37545;45.302;-122.946;2023-03-26T11:46:20;1.90;;;1.00;;
51467;SDS011;37545;45.302;-122.946;2023-03-26T11:48:52;1.55;;;0.90;;
51467;SDS011;37545;45.302;-122.946;2023-03-26T11:51:26;2.33;;;0.95;;
51467;SDS011;37545;45.302;-122.946;2023-03-26T11:53:58;2.70;;;0.98;;
51467;SDS011;37545;45.302;-122.946;2023-03-26T11:56:28;4.18;;;1.13;;
51467;SDS011;37545;45.302;-122.946;2023-03-26T11:59:00;2.10;;;0.80;;
51467;SDS011;37545;45.302;-122.946;2023-03-26T12:01:42;4.47;;;1.23;;
51467;SDS011;37545;45.302;-122.946;2023-03-26T12:04:18;7.78;;;1.00;;
51467;SDS011;37545;45.302;-122.946;2023-03-26T12:06:54;3.38;;;0.85;;
51467;SDS011;37545;45.302;-122.946;2023-03-26T12:09:24;2.95;;;1.40;;
51467;SDS011;37545;45.302;-122.946;2023-03-26T12:11:55;3.30;;;0.98;;
51467;SDS011;37545;45.302;-122.946;2023-03-26T12:14:29;1.45;;;0.80;;
51467;SDS011;37545;45.302;-122.946;2023-03-26T12:17:02;3.05;;;1.05;;
51467;SDS011;37545;45.302;-122.946;2023-03-26T12:19:38;4.72;;;0.95;;
51467;SDS011;37545;45.302;-122.946;2023-03-26T12:25:11;3.72;;;1.17;;
51467;SDS011;37545;45.302;-122.946;2023-03-26T12:27:43;2.47;;;1.48;;
51467;SDS011;37545;45.302;-122.946;2023-03-26T12:32:48;2.55;;;0.80;;
51467;SDS011;37545;45.302;-122.946;2023-03-26T12:35:21;2.72;;;0.80;;
51467;SDS011;37545;45.302;-122.946;2023-03-26T12:37:54;3.45;;;1.00;;
51467;SDS011;37545;45.302;-122.946;2023-03-26T12:40:39;1.95;;;0.98;;
51467;SDS011;37545;45.302;-122.946;2023-03-26T12:43:22;1.92;;;1.05;;
51467;SDS011;37545;45.302;-122.946;2023-03-26T12:45:56;1.17;;;0.60;;
51467;SDS011;37545;45.302;-122.946;2023-03-26T12:48:25;1.77;;;0.70;;
51467;SDS011;37545;45.302;-122.946;2023-03-26T12:51:00;1.58;;;1.10;;
51467;SDS011;37545;45.302;-122.946;2023-03-26T12:53:42;4.15;;;1.00;;
51467;SDS011;37545;45.302;-122.946;2023-03-26T12:56:24;2.13;;;0.80;;
51467;SDS011;37545;45.302;-122.946;2023-03-26T12:59:13;5.82;;;1.45;;
51467;SDS011;37545;45.302;-122.946;2023-03-26T13:01:53;4.95;;;1.20;;
51467;SDS011;37545;45.302;-122.946;2023-03-26T13:04:31;5.38;;;0.85;;
51467;SDS011;37545;45.302;-122.946;2023-03-26T13:07:22;2.58;;;1.10;;
51467;SDS011;37545;45.302;-122.946;2023-03-26T13:10:11;1.77;;;0.88;;
51467;SDS011;37545;45.302;-122.946;2023-03-26T13:12:55;1.55;;;0.80;;
51467;SDS011;37545;45.302;-122.946;2023-03-26T13:15:36;3.28;;;0.93;;
51467;SDS011;37545;45.302;-122.946;2023-03-26T13:18:14;3.72;;;1.30;;
51467;SDS011;37545;45.302;-122.946;2023-03-26T13:20:50;2.65;;;1.30;;
51467;SDS011;37545;45.302;-122.946;2023-03-26T13:23:37;2.88;;;1.38;;
51467;SDS011;37545;45.302;-122.946;2023-03-26T13:26:15;1.58;;;1.15;;
51467;SDS011;37545;45.302;-122.946;2023-03-26T13:28:52;1.88;;;1.00;;
51467;SDS011;37545;45.302;-122.946;2023-03-26T13:31:29;7.18;;;1.33;;
51467;SDS011;37545;45.302;-122.946;2023-03-26T13:34:06;1.52;;;1.02;;
51467;SDS011;37545;45.302;-122.946;2023-03-26T13:36:45;4.55;;;1.20;;
51467;SDS011;37545;45.302;-122.946;2023-03-26T13:39:25;2.75;;;1.10;;
51467;SDS011;37545;45.302;-122.946;2023-03-26T13:42:10;2.50;;;1.15;;
51467;SDS011;37545;45.302;-122.946;2023-03-26T13:44:51;4.78;;;1.33;;
51467;SDS011;37545;45.302;-122.946;2023-03-26T13:47:29;2.83;;;1.60;;
51467;SDS011;37545;45.302;-122.946;2023-03-26T13:50:02;2.67;;;1.58;;
51467;SDS011;37545;45.302;-122.946;2023-03-26T13:52:36;2.97;;;1.63;;
51467;SDS011;37545;45.302;-122.946;2023-03-26T13:55:17;2.80;;;2.05;;
51467;SDS011;37545;45.302;-122.946;2023-03-26T13:57:50;3.45;;;1.40;;
51467;SDS011;37545;45.302;-122.946;2023-03-26T14:00:25;2.75;;;1.40;;
51467;SDS011;37545;45.302;-122.946;2023-03-26T14:03:00;6.97;;;1.85;;
51467;SDS011;37545;45.302;-122.946;2023-03-26T14:05:38;2.65;;;1.90;;
51467;SDS011;37545;45.302;-122.946;2023-03-26T14:08:11;4.78;;;1.40;;
51467;SDS011;37545;45.302;-122.946;2023-03-26T14:10:48;3.50;;;1.77;;
51467;SDS011;37545;45.302;-122.946;2023-03-26T14:13:23;3.25;;;2.10;;
51467;SDS011;37545;45.302;-122.946;2023-03-26T14:15:56;3.30;;;1.38;;
51467;SDS011;37545;45.302;-122.946;2023-03-26T14:18:32;3.53;;;1.92;;
51467;SDS011;37545;45.302;-122.946;2023-03-26T14:21:21;3.08;;;1.70;;
51467;SDS011;37545;45.302;-122.946;2023-03-26T14:24:14;2.75;;;1.92;;
51467;SDS011;37545;45.302;-122.946;2023-03-26T14:27:15;3.88;;;1.80;;
51467;SDS011;37545;45.302;-122.946;2023-03-26T14:30:03;3.67;;;2.55;;
51467;SDS011;37545;45.302;-122.946;2023-03-26T14:32:51;3.33;;;1.90;;
51467;SDS011;37545;45.302;-122.946;2023-03-26T14:35:33;2.17;;;1.33;;
51467;SDS011;37545;45.302;-122.946;2023-03-26T14:38:16;3.63;;;2.03;;
51467;SDS011;37545;45.302;-122.946;2023-03-26T14:41:01;2.95;;;1.85;;
51467;SDS011;37545;45.302;-122.946;2023-03-26T14:44:01;8.20;;;2.42;;
51467;SDS011;37545;45.302;-122.946;2023-03-26T14:46:50;3.03;;;2.17;;
51467;SDS011;37545;45.302;-122.946;2023-03-26T14:52:42;2.28;;;1.67;;
51467;SDS011;37545;45.302;-122.946;2023-03-26T14:55:20;3.72;;;2.17;;
51467;SDS011;37545;45.302;-122.946;2023-03-26T15:01:24;3.53;;;1.70;;
51467;SDS011;37545;45.302;-122.946;2023-03-26T15:07:01;3.17;;;1.88;;
51467;SDS011;37545;45.302;-122.946;2023-03-26T15:13:06;3.70;;;1.58;;
51467;SDS011;37545;45.302;-122.946;2023-03-26T15:15:59;3.22;;;1.75;;
51467;SDS011;37545;45.302;-122.946;2023-03-26T15:31:27;3.22;;;1.65;;
51467;SDS011;37545;45.302;-122.946;2023-03-26T15:43:27;2.63;;;1.33;;
51467;SDS011;37545;45.302;-122.946;2023-03-26T15:46:30;1.77;;;1.27;;
51467;SDS011;37545;45.302;-122.946;2023-03-26T15:49:15;2.13;;;1.10;;
51467;SDS011;37545;45.302;-122.946;2023-03-26T15:51:52;2.53;;;1.38;;
51467;SDS011;37545;45.302;-122.946;2023-03-26T15:54:25;5.18;;;1.50;;
51467;SDS011;37545;45.302;-122.946;2023-03-26T15:57:05;8.88;;;1.38;;
51467;SDS011;37545;45.302;-122.946;2023-03-26T15:59:47;2.10;;;1.20;;
51467;SDS011;37545;45.302;-122.946;2023-03-26T16:02:41;1.75;;;1.10;;
51467;SDS011;37545;45.302;-122.946;2023-03-26T16:05:23;3.60;;;1.63;;
51467;SDS011;37545;45.302;-122.946;2023-03-26T16:08:00;2.50;;;1.50;;
51467;SDS011;37545;45.302;-122.946;2023-03-26T16:10:40;1.60;;;1.10;;